Time;durP1;ratioP1;P1;durP2;ratioP2;P2;SDS_P1;SDS_P2;PMS_P1;PMS_P2;Temp;Humidity;BMP_temperature;BMP_pressure;BME280_temperature;BME280_humidity;BME280_pressure;Samples;Min_cycle;Max_cycle;Signal;HPM_P1;HPM_P2
2021/12/23 00:02:13;;;;;;;218.90;87.23;;;-8.10;99.90;;;;;;5112017;28;20020;-78
2021/12/23 00:04:38;;;;;;;227.67;89.87;;;-8.10;99.90;;;;;;5110629;28;20043;-78
2021/12/23 00:07:04;;;;;;;262.00;99.10;;;-8.10;99.90;;;;;;5110868;28;20057;-78
2021/12/23 00:10:02;;;;;;;300.10;110.13;;;-8.10;99.90;;;;;;5110359;28;20023;-77
2021/12/23 00:12:18;;;;;;;230.93;93.57;;;-8.00;99.90;;;;;;5091364;28;20377;-77
2021/12/23 00:14:50;;;;;;;168.83;71.60;;;-7.90;99.90;;;;;;5090120;28;20020;-77
2021/12/23 00:17:25;;;;;;;149.50;57.97;;;-8.00;99.90;;;;;;5090333;28;20035;-78
2021/12/23 00:25:16;;;;;;;145.10;58.77;;;-7.80;99.90;;;;;;5090925;28;20085;-77
2021/12/23 00:27:41;;;;;;;133.83;47.87;;;-7.80;99.90;;;;;;5091340;28;20028;-78
2021/12/23 00:30:08;;;;;;;131.93;51.23;;;-7.80;99.90;;;;;;5091124;28;20036;-78
2021/12/23 00:32:36;;;;;;;190.97;70.83;;;-7.70;99.90;;;;;;5089813;28;20059;-78
2021/12/23 00:35:06;;;;;;;218.50;82.37;;;-7.70;99.90;;;;;;5089621;28;20547;-78
2021/12/23 00:37:38;;;;;;;166.03;64.43;;;-7.70;99.90;;;;;;5089508;28;20024;-78
2021/12/23 00:40:05;;;;;;;120.10;49.17;;;-7.60;99.90;;;;;;5091128;28;20020;-78
2021/12/23 00:42:33;;;;;;;139.60;53.03;;;-7.60;99.90;;;;;;5089932;28;20020;-78
2021/12/23 00:44:58;;;;;;;114.37;45.73;;;-7.50;99.90;;;;;;5091447;28;20444;-78
2021/12/23 00:47:24;;;;;;;120.60;46.97;;;-7.50;99.90;;;;;;5090747;28;20069;-78
2021/12/23 00:49:49;;;;;;;146.10;60.13;;;-7.50;99.90;;;;;;5089986;28;20020;-78
2021/12/23 00:52:18;;;;;;;175.93;68.97;;;-7.50;99.90;;;;;;5091205;28;20020;-78
2021/12/23 00:54:43;;;;;;;236.10;81.40;;;-7.40;99.90;;;;;;5089712;28;20073;-78
2021/12/23 00:57:09;;;;;;;217.10;83.67;;;-7.40;99.90;;;;;;5089776;28;20021;-78
2021/12/23 00:59:37;;;;;;;207.53;80.47;;;-7.50;99.90;;;;;;5090965;28;20101;-78
2021/12/23 01:02:07;;;;;;;214.60;86.30;;;-7.50;99.90;;;;;;5089747;28;20020;-77
2021/12/23 01:04:32;;;;;;;201.63;85.70;;;-7.50;99.90;;;;;;5089455;28;20089;-78
2021/12/23 01:06:58;;;;;;;487.00;172.97;;;-7.60;99.90;;;;;;5089565;28;20020;-79
2021/12/23 01:09:24;;;;;;;433.20;144.57;;;-7.60;99.90;;;;;;5090426;28;20028;-77
2021/12/23 01:11:50;;;;;;;230.83;91.33;;;-7.60;99.90;;;;;;5089925;28;20020;-78
2021/12/23 01:19:27;;;;;;;288.90;107.07;;;-7.70;99.90;;;;;;5091093;28;20040;-78
2021/12/23 01:21:52;;;;;;;314.17;116.67;;;-7.80;99.90;;;;;;5089604;28;20046;-78
2021/12/23 01:24:18;;;;;;;353.03;125.27;;;-7.80;99.90;;;;;;5090539;28;20032;-77
2021/12/23 01:26:44;;;;;;;322.37;116.67;;;-7.80;99.90;;;;;;5089224;28;20020;-78
2021/12/23 01:29:09;;;;;;;352.77;121.53;;;-7.90;99.90;;;;;;5090758;28;20031;-78
2021/12/23 01:31:38;;;;;;;324.07;111.80;;;-7.90;99.90;;;;;;5090724;28;20448;-78
2021/12/23 01:34:04;;;;;;;270.83;101.07;;;-7.90;99.90;;;;;;5089375;28;20107;-77
2021/12/23 01:36:30;;;;;;;188.90;79.40;;;-7.90;99.90;;;;;;5090723;28;20016;-77
2021/12/23 01:38:56;;;;;;;172.13;63.93;;;-7.90;99.90;;;;;;5089350;28;20050;-77
2021/12/23 01:41:23;;;;;;;163.40;65.57;;;-8.00;99.90;;;;;;5090967;28;20020;-78
2021/12/23 01:43:50;;;;;;;148.50;61.20;;;-8.00;99.90;;;;;;5090638;28;20028;-77
2021/12/23 01:46:16;;;;;;;124.37;50.27;;;-8.00;99.90;;;;;;5089770;28;20023;-77
2021/12/23 01:48:42;;;;;;;107.63;43.30;;;-8.10;99.90;;;;;;5092808;28;20417;-78
2021/12/23 01:51:08;;;;;;;97.33;44.70;;;-8.10;99.90;;;;;;5094020;28;20028;-78
2021/12/23 01:53:33;;;;;;;102.37;43.47;;;-8.10;99.90;;;;;;5092929;28;20031;-79
2021/12/23 01:56:00;;;;;;;95.33;42.20;;;-8.20;99.90;;;;;;5092832;28;20024;-77
2021/12/23 01:58:26;;;;;;;97.27;40.97;;;-8.20;99.90;;;;;;5092747;28;20114;-78
2021/12/23 02:00:52;;;;;;;102.47;43.30;;;-8.20;99.90;;;;;;5092662;28;20165;-77
2021/12/23 02:03:19;;;;;;;110.67;45.23;;;-8.20;99.90;;;;;;5092735;28;20024;-77
2021/12/23 02:05:45;;;;;;;91.10;40.97;;;-8.30;99.90;;;;;;5092507;28;20024;-77
2021/12/23 02:08:11;;;;;;;93.60;40.23;;;-8.40;99.90;;;;;;5092604;28;20145;-78
2021/12/23 02:10:37;;;;;;;85.27;41.60;;;-8.40;99.90;;;;;;5092399;28;20031;-78
2021/12/23 02:13:03;;;;;;;107.50;39.77;;;-8.50;99.90;;;;;;5093862;28;20095;-78
2021/12/23 02:15:28;;;;;;;97.33;40.97;;;-8.50;99.90;;;;;;5092406;28;20111;-77
2021/12/23 02:17:55;;;;;;;100.30;40.30;;;-8.50;99.90;;;;;;5092516;28;20478;-78
2021/12/23 02:20:24;;;;;;;95.53;38.50;;;-8.60;99.90;;;;;;5092285;28;20028;-77
2021/12/23 02:22:50;;;;;;;84.20;37.93;;;-8.60;99.90;;;;;;5093607;28;20073;-77
2021/12/23 02:25:17;;;;;;;88.77;34.23;;;-8.70;99.90;;;;;;5093588;28;20039;-77
2021/12/23 02:27:44;;;;;;;78.90;32.00;;;-8.70;99.90;;;;;;5093461;28;20028;-78
2021/12/23 02:30:16;;;;;;;72.00;31.07;;;-8.70;99.90;;;;;;5092055;28;20115;-78
2021/12/23 02:32:43;;;;;;;81.03;31.67;;;-8.80;99.90;;;;;;5092229;28;20557;-77
2021/12/23 02:35:13;;;;;;;82.07;34.73;;;-8.80;99.90;;;;;;5093332;28;20024;-78
2021/12/23 02:37:40;;;;;;;73.83;29.30;;;-8.80;99.90;;;;;;5092081;28;20016;-78
2021/12/23 02:40:07;;;;;;;63.93;27.70;;;-8.80;99.90;;;;;;5091963;28;20020;-78
2021/12/23 02:42:32;;;;;;;62.63;27.43;;;-8.90;99.90;;;;;;5091549;28;20028;-78
2021/12/23 02:44:58;;;;;;;67.63;27.20;;;-8.90;99.90;;;;;;5091916;28;20577;-78
2021/12/23 02:47:24;;;;;;;68.47;28.40;;;-9.00;99.90;;;;;;5091883;28;20271;-77
2021/12/23 02:49:49;;;;;;;64.93;28.03;;;-9.00;99.90;;;;;;5091627;28;20040;-78
2021/12/23 02:52:16;;;;;;;61.30;26.57;;;-9.00;99.90;;;;;;5091754;28;20012;-78
2021/12/23 02:54:42;;;;;;;56.47;25.03;;;-9.00;99.90;;;;;;5091629;28;20017;-78
2021/12/23 02:57:07;;;;;;;69.20;26.43;;;-9.00;99.90;;;;;;5091623;28;20024;-78
2021/12/23 02:59:33;;;;;;;52.27;24.83;;;-9.00;99.90;;;;;;5092899;28;20031;-78
2021/12/23 03:02:00;;;;;;;57.27;26.03;;;-9.00;99.90;;;;;;5091516;28;20020;-77
2021/12/23 03:04:26;;;;;;;66.23;26.83;;;-9.10;99.90;;;;;;5092696;28;20503;-80
2021/12/23 03:06:56;;;;;;;57.93;24.87;;;-9.20;99.90;;;;;;5091540;28;20040;-80
2021/12/23 03:09:22;;;;;;;83.03;31.20;;;-9.20;99.90;;;;;;5092658;28;20413;-80
2021/12/23 03:11:47;;;;;;;100.00;37.63;;;-9.20;99.90;;;;;;5090686;28;20028;-80
2021/12/23 03:14:15;;;;;;;72.90;31.67;;;-9.20;99.90;;;;;;5090513;28;20028;-79
2021/12/23 03:16:40;;;;;;;66.57;28.63;;;-9.20;99.90;;;;;;5090416;28;20100;-80
2021/12/23 03:19:07;;;;;;;67.80;27.17;;;-9.20;99.90;;;;;;5090282;28;20090;-80
2021/12/23 03:21:33;;;;;;;61.90;25.93;;;-9.30;99.90;;;;;;5090823;28;20021;-80
2021/12/23 03:23:59;;;;;;;60.03;24.87;;;-9.30;99.90;;;;;;5091002;28;20028;-80
2021/12/23 03:26:25;;;;;;;63.00;26.07;;;-9.40;99.90;;;;;;5091159;28;20020;-80
2021/12/23 03:28:51;;;;;;;61.73;25.57;;;-9.40;99.90;;;;;;5092063;28;20026;-78
2021/12/23 03:31:17;;;;;;;62.00;27.30;;;-9.40;99.90;;;;;;5091017;28;20455;-78
2021/12/23 03:33:43;;;;;;;59.03;26.97;;;-9.40;99.90;;;;;;5092241;28;20024;-78
2021/12/23 03:36:09;;;;;;;62.67;26.70;;;-9.40;99.90;;;;;;5090904;28;20031;-78
2021/12/23 03:38:34;;;;;;;58.00;26.43;;;-9.40;99.90;;;;;;5092084;28;20028;-77
2021/12/23 03:41:01;;;;;;;56.63;26.33;;;-9.40;99.90;;;;;;5092069;28;20031;-77
2021/12/23 03:43:28;;;;;;;63.23;28.80;;;-9.50;99.90;;;;;;5092323;28;20024;-77
2021/12/23 03:45:54;;;;;;;58.10;24.97;;;-9.40;99.90;;;;;;5109694;28;20465;-76
2021/12/23 03:48:19;;;;;;;60.00;24.57;;;-9.40;99.90;;;;;;5110968;28;20110;-78
2021/12/23 03:50:47;;;;;;;57.93;24.87;;;-9.40;99.90;;;;;;5107251;28;20032;-78
2021/12/23 03:53:14;;;;;;;47.77;21.20;;;-9.40;99.90;;;;;;5090488;28;20023;-77
2021/12/23 03:55:40;;;;;;;51.60;22.50;;;-9.40;99.90;;;;;;5091636;28;20062;-77
2021/12/23 03:58:05;;;;;;;46.80;20.70;;;-9.40;99.90;;;;;;5090414;28;20101;-77
2021/12/23 04:00:31;;;;;;;51.60;20.40;;;-9.40;99.90;;;;;;5091347;28;20058;-77
2021/12/23 04:02:57;;;;;;;53.03;24.50;;;-9.40;99.90;;;;;;5091560;28;20021;-77
2021/12/23 04:05:23;;;;;;;63.20;25.47;;;-9.40;99.90;;;;;;5090095;28;20157;-77
2021/12/23 04:07:49;;;;;;;58.73;27.63;;;-9.40;99.90;;;;;;5091457;28;20371;-78
2021/12/23 04:10:17;;;;;;;73.87;32.37;;;-9.40;99.90;;;;;;5090765;28;20024;-78
2021/12/23 04:12:44;;;;;;;79.00;32.20;;;-9.40;99.90;;;;;;5091346;28;20013;-77
2021/12/23 04:15:09;;;;;;;82.77;31.33;;;-9.40;99.90;;;;;;5090100;28;20495;-77
2021/12/23 04:17:35;;;;;;;70.93;30.17;;;-9.40;99.90;;;;;;5091131;28;20059;-77
2021/12/23 04:20:18;;;;;;;66.57;26.70;;;-9.40;99.90;;;;;;5089944;28;20022;-77
2021/12/23 04:22:45;;;;;;;62.00;28.33;;;-9.50;99.90;;;;;;5090027;28;20024;-78
2021/12/23 04:25:13;;;;;;;67.73;29.30;;;-9.40;99.90;;;;;;5089941;28;20039;-79
2021/12/23 04:27:39;;;;;;;81.60;32.20;;;-9.50;99.90;;;;;;5090971;28;20016;-80
2021/12/23 04:30:07;;;;;;;73.57;30.33;;;-9.50;99.90;;;;;;5091225;28;20024;-80
2021/12/23 04:32:33;;;;;;;75.43;28.37;;;-9.50;99.90;;;;;;5090012;28;20060;-80
2021/12/23 04:34:59;;;;;;;71.13;28.47;;;-9.50;99.90;;;;;;5090022;28;20020;-80
2021/12/23 04:37:24;;;;;;;83.20;30.60;;;-9.60;99.90;;;;;;5090037;28;20031;-79
2021/12/23 04:39:50;;;;;;;99.33;36.17;;;-9.50;99.90;;;;;;5089895;28;20107;-77
2021/12/23 04:42:15;;;;;;;197.33;67.83;;;-9.60;99.90;;;;;;5091392;28;20040;-78
2021/12/23 04:44:41;;;;;;;191.93;64.37;;;-9.60;99.90;;;;;;5089999;28;20359;-80
2021/12/23 04:47:06;;;;;;;135.57;44.50;;;-9.70;99.90;;;;;;5091475;28;20465;-81
2021/12/23 04:49:32;;;;;;;140.27;49.30;;;-9.70;99.90;;;;;;5091056;28;20093;-78
2021/12/23 04:51:58;;;;;;;238.93;81.53;;;-9.70;99.90;;;;;;5091285;28;20016;-77
2021/12/23 04:54:23;;;;;;;251.63;78.47;;;-9.70;99.90;;;;;;5091110;28;20579;-77
2021/12/23 04:56:49;;;;;;;247.00;79.43;;;-9.70;99.90;;;;;;5091032;28;20419;-78
2021/12/23 04:59:15;;;;;;;156.83;56.00;;;-9.80;99.90;;;;;;5091247;28;20465;-80
2021/12/23 05:01:40;;;;;;;89.80;34.37;;;-9.80;99.90;;;;;;5089723;28;20016;-81
2021/12/23 05:04:06;;;;;;;63.47;25.83;;;-9.80;99.90;;;;;;5089542;28;20074;-78
2021/12/23 05:06:31;;;;;;;50.23;23.53;;;-9.80;99.90;;;;;;5089672;28;20020;-78
2021/12/23 05:08:57;;;;;;;50.50;20.63;;;-9.80;99.90;;;;;;5089472;28;20110;-77
2021/12/23 05:11:23;;;;;;;51.30;21.93;;;-9.80;99.90;;;;;;5090867;28;20054;-79
2021/12/23 05:13:48;;;;;;;50.23;22.50;;;-9.80;99.90;;;;;;5090875;28;20460;-78
2021/12/23 05:16:19;;;;;;;43.47;21.87;;;-9.80;99.90;;;;;;5090777;28;20482;-78
2021/12/23 05:18:45;;;;;;;48.20;20.83;;;-9.90;99.90;;;;;;5089507;28;20315;-77
2021/12/23 05:21:11;;;;;;;43.03;19.07;;;-9.90;99.90;;;;;;5089803;28;20474;-77
2021/12/23 05:23:37;;;;;;;47.90;21.33;;;-9.90;99.90;;;;;;5094346;28;20031;-78
2021/12/23 05:26:06;;;;;;;49.53;21.90;;;-9.90;99.90;;;;;;5093244;28;20103;-78
2021/12/23 05:28:32;;;;;;;40.80;19.63;;;-9.90;99.90;;;;;;5094722;28;20390;-78
2021/12/23 05:30:58;;;;;;;50.37;20.83;;;-9.90;99.90;;;;;;5094552;28;20024;-78
2021/12/23 05:33:24;;;;;;;78.03;28.73;;;-9.90;99.90;;;;;;5093108;28;20024;-81
2021/12/23 05:35:49;;;;;;;62.50;27.37;;;-9.90;99.90;;;;;;5093152;28;20020;-78
2021/12/23 05:38:15;;;;;;;57.77;22.87;;;-10.00;99.90;;;;;;5093119;28;20024;-77
2021/12/23 05:40:41;;;;;;;56.73;21.87;;;-10.00;99.90;;;;;;5093028;28;20508;-78
2021/12/23 05:43:06;;;;;;;44.97;19.07;;;-10.00;99.90;;;;;;5094463;28;20050;-77
2021/12/23 05:45:32;;;;;;;37.33;17.80;;;-10.00;99.90;;;;;;5106356;28;20031;-76
2021/12/23 05:47:58;;;;;;;43.33;20.23;;;-10.00;99.90;;;;;;5114739;28;20530;-77
2021/12/23 05:50:25;;;;;;;108.83;41.37;;;-10.10;99.90;;;;;;5113255;28;20061;-76
2021/12/23 05:52:51;;;;;;;110.13;40.50;;;-10.00;99.90;;;;;;5103665;28;20028;-77
2021/12/23 05:55:18;;;;;;;108.37;37.27;;;-10.10;99.90;;;;;;5092881;28;20028;-76
2021/12/23 05:57:44;;;;;;;99.27;38.93;;;-10.10;99.90;;;;;;5100134;28;20024;-76
2021/12/23 06:00:17;;;;;;;105.40;39.63;;;-10.20;99.90;;;;;;5094972;28;20537;-77
2021/12/23 06:02:42;;;;;;;;;;;-10.20;99.90;;;;;;5093041;28;20020;-77
2021/12/23 06:05:09;;;;;;;98.37;36.33;;;-10.20;99.90;;;;;;5092475;28;19919;-77
2021/12/23 06:07:34;;;;;;;132.73;47.73;;;-10.20;99.90;;;;;;5100380;28;20020;-77
2021/12/23 06:10:00;;;;;;;62.20;25.27;;;-10.30;99.90;;;;;;5095449;28;20469;-75
2021/12/23 06:12:26;;;;;;;52.43;22.33;;;-10.30;99.90;;;;;;5102385;28;20034;-76
2021/12/23 06:14:52;;;;;;;58.47;23.20;;;-10.30;99.90;;;;;;5109852;28;20023;-78
2021/12/23 06:17:18;;;;;;;55.60;26.03;;;-10.30;99.90;;;;;;5109303;28;20082;-76
2021/12/23 06:19:43;;;;;;;52.43;21.73;;;-10.30;99.90;;;;;;5102379;28;20031;-77
2021/12/23 06:22:09;;;;;;;45.63;18.87;;;-10.30;99.90;;;;;;5112686;28;20443;-78
2021/12/23 06:24:39;;;;;;;64.40;29.83;;;-10.30;99.90;;;;;;5112423;28;20031;-78
2021/12/23 06:27:04;;;;;;;88.97;36.20;;;-10.30;99.90;;;;;;5112661;28;20553;-79
2021/12/23 06:29:30;;;;;;;102.43;40.17;;;-10.30;99.90;;;;;;5091570;28;20103;-77
2021/12/23 06:31:55;;;;;;;96.10;36.77;;;-10.30;99.90;;;;;;5092077;28;20020;-78
2021/12/23 06:34:21;;;;;;;102.83;41.93;;;-10.30;99.90;;;;;;5093016;28;20061;-75
2021/12/23 06:36:46;;;;;;;131.63;50.63;;;-10.30;99.90;;;;;;5098890;28;20106;-76
2021/12/23 06:39:12;;;;;;;142.57;54.07;;;-10.20;99.90;;;;;;5099442;28;20126;-76
2021/12/23 06:41:39;;;;;;;138.37;54.80;;;-10.20;99.90;;;;;;5097085;28;20067;-76
2021/12/23 06:44:05;;;;;;;150.53;58.13;;;-10.20;99.90;;;;;;5091271;28;20032;-77
2021/12/23 06:46:30;;;;;;;141.13;55.93;;;-10.20;99.90;;;;;;5092979;28;20515;-78
2021/12/23 06:48:56;;;;;;;105.33;43.70;;;-10.20;99.90;;;;;;5090967;28;20474;-78
2021/12/23 06:51:22;;;;;;;68.63;27.90;;;-10.20;99.90;;;;;;5108267;28;20492;-75
2021/12/23 06:53:47;;;;;;;46.63;19.77;;;-10.10;99.90;;;;;;5091735;28;20575;-75
2021/12/23 06:56:17;;;;;;;58.60;24.33;;;-10.10;99.90;;;;;;5092090;28;20442;-75
2021/12/23 06:58:47;;;;;;;53.30;23.30;;;-10.10;99.90;;;;;;5091235;28;20397;-76
2021/12/23 07:01:15;;;;;;;78.17;31.87;;;-10.10;99.90;;;;;;5093155;28;20020;-75
2021/12/23 07:04:15;;;;;;;102.80;40.93;;;-10.00;99.90;;;;;;5092582;28;20114;-75
2021/12/23 07:06:35;;;;;;;121.37;49.70;;;-10.00;99.90;;;;;;5091529;28;20059;-75
2021/12/23 07:09:05;;;;;;;136.03;54.43;;;-10.00;99.90;;;;;;5092427;28;20431;-75
2021/12/23 07:11:32;;;;;;;150.33;52.73;;;-10.00;99.90;;;;;;5091340;28;20039;-75
2021/12/23 07:13:57;;;;;;;155.23;59.27;;;-10.00;99.90;;;;;;5089884;28;20028;-75
2021/12/23 07:16:23;;;;;;;170.17;59.10;;;-10.00;99.90;;;;;;5091056;28;20050;-77
2021/12/23 07:18:49;;;;;;;159.80;61.03;;;-10.00;99.90;;;;;;5090125;28;20024;-75
2021/12/23 07:21:14;;;;;;;157.63;58.40;;;-10.00;99.90;;;;;;5087376;28;20504;-76
2021/12/23 07:23:40;;;;;;;152.47;58.10;;;-9.90;99.90;;;;;;5089209;28;20067;-76
2021/12/23 07:26:05;;;;;;;145.87;56.47;;;-9.90;99.90;;;;;;5087499;28;20024;-77
2021/12/23 07:28:31;;;;;;;135.80;50.43;;;-9.80;99.90;;;;;;5090151;28;20032;-76
2021/12/23 07:30:57;;;;;;;130.23;51.10;;;-9.80;99.90;;;;;;5090853;28;20111;-76
2021/12/23 07:33:23;;;;;;;105.50;46.13;;;-9.70;99.90;;;;;;5089319;28;20174;-76
2021/12/23 07:35:49;;;;;;;123.87;52.67;;;-9.60;99.90;;;;;;5091525;28;20023;-76
2021/12/23 07:38:15;;;;;;;119.13;50.27;;;-9.60;99.90;;;;;;5090622;28;20252;-75
2021/12/23 07:40:41;;;;;;;132.27;52.73;;;-9.50;99.90;;;;;;5089292;28;20024;-76
2021/12/23 07:43:21;;;;;;;150.07;63.60;;;-9.50;99.90;;;;;;5090542;28;20035;-75
2021/12/23 07:45:47;;;;;;;176.87;66.70;;;-9.40;99.90;;;;;;5089526;28;20035;-75
2021/12/23 07:48:12;;;;;;;181.20;71.63;;;-9.20;99.90;;;;;;5088909;28;20127;-76
2021/12/23 07:50:41;;;;;;;143.13;60.20;;;-9.10;99.90;;;;;;5088812;28;20020;-75
2021/12/23 07:53:07;;;;;;;140.63;60.60;;;-9.00;99.90;;;;;;5090550;28;20054;-75
2021/12/23 07:55:32;;;;;;;152.13;65.57;;;-9.00;99.90;;;;;;5090610;28;20028;-75
2021/12/23 07:57:58;;;;;;;169.83;69.23;;;-8.80;99.90;;;;;;5091306;28;20099;-76
2021/12/23 08:00:28;;;;;;;163.27;64.57;;;-8.70;99.90;;;;;;5090350;28;20062;-75
2021/12/23 08:02:54;;;;;;;155.97;70.30;;;-8.60;99.90;;;;;;5091931;28;20039;-75
2021/12/23 08:05:20;;;;;;;173.40;76.53;;;-8.40;99.90;;;;;;5091586;28;20044;-75
2021/12/23 08:07:45;;;;;;;195.87;93.00;;;-8.30;99.90;;;;;;5091851;28;20015;-75
2021/12/23 08:10:11;;;;;;;206.37;91.10;;;-8.10;99.90;;;;;;5091387;28;20374;-75
2021/12/23 08:12:36;;;;;;;133.10;65.23;;;-8.00;99.90;;;;;;5090486;28;20050;-77
2021/12/23 08:15:03;;;;;;;131.37;61.80;;;-7.80;99.90;;;;;;5091597;28;20435;-76
2021/12/23 08:17:29;;;;;;;178.20;79.10;;;-7.70;99.90;;;;;;5090320;28;20367;-76
2021/12/23 08:19:54;;;;;;;188.03;81.30;;;-7.60;99.90;;;;;;5090305;28;20019;-76
2021/12/23 08:22:22;;;;;;;193.30;85.83;;;-7.50;99.90;;;;;;5091657;28;20106;-77
2021/12/23 08:24:48;;;;;;;202.03;85.70;;;-7.40;99.90;;;;;;5090464;28;20393;-76
2021/12/23 08:27:13;;;;;;;228.20;94.30;;;-7.30;99.90;;;;;;5091542;28;20028;-76
2021/12/23 08:29:39;;;;;;;216.88;102.68;;;-7.20;99.90;;;;;;5090204;28;20035;-76
2021/12/23 08:32:05;;;;;;;262.50;109.03;;;-7.10;99.90;;;;;;5090186;28;20023;-78
2021/12/23 08:34:34;;;;;;;246.60;110.57;;;-7.00;99.90;;;;;;5091417;28;20473;-76
2021/12/23 08:37:00;;;;;;;206.65;95.35;;;-6.80;99.90;;;;;;5091469;28;20508;-76
2021/12/23 08:39:26;;;;;;;228.40;100.83;;;-6.70;99.90;;;;;;5091342;28;20111;-76
2021/12/23 08:41:51;;;;;;;230.90;90.60;;;-6.60;99.90;;;;;;5091459;28;20100;-77
2021/12/23 08:44:17;;;;;;;238.33;98.80;;;-6.50;99.90;;;;;;5090929;28;20149;-76
2021/12/23 08:46:43;;;;;;;191.75;87.20;;;-6.30;99.90;;;;;;5089868;28;20028;-77
2021/12/23 08:49:08;;;;;;;186.00;83.32;;;-6.10;99.90;;;;;;5089992;28;20358;-76
2021/12/23 08:51:35;;;;;;;100.47;42.22;;;-5.90;99.90;;;;;;5091221;28;20056;-76
2021/12/23 08:54:01;;;;;;;83.38;36.47;;;-5.80;99.90;;;;;;5091162;28;20035;-74
2021/12/23 08:56:26;;;;;;;89.82;40.22;;;-5.70;99.90;;;;;;5091092;28;20020;-75
2021/12/23 08:58:53;;;;;;;89.70;39.92;;;-5.60;99.90;;;;;;5095075;28;20028;-74
2021/12/23 09:01:19;;;;;;;89.75;39.10;;;-5.50;99.90;;;;;;5091970;28;20024;-74
2021/12/23 09:03:44;;;;;;;90.53;41.20;;;-5.30;99.90;;;;;;5090557;28;20034;-75
2021/12/23 09:06:10;;;;;;;76.03;33.33;;;-5.20;99.90;;;;;;5091850;28;20048;-75
2021/12/23 09:08:36;;;;;;;62.33;30.17;;;-5.10;99.90;;;;;;5091938;28;20077;-75
2021/12/23 09:11:03;;;;;;;57.28;28.52;;;-5.10;99.90;;;;;;5093970;28;20023;-74
2021/12/23 09:13:29;;;;;;;56.90;28.30;;;-5.00;99.90;;;;;;5093804;28;20020;-74
2021/12/23 09:15:56;;;;;;;65.72;29.15;;;-4.90;99.90;;;;;;5095371;28;20024;-74
2021/12/23 09:18:22;;;;;;;70.88;31.02;;;-4.70;99.90;;;;;;5095101;28;20024;-75
2021/12/23 09:20:49;;;;;;;76.03;32.88;;;-4.60;99.90;;;;;;5100397;28;20030;-75
2021/12/23 09:23:16;;;;;;;67.63;31.05;;;-4.50;99.90;;;;;;5113970;28;20035;-75
2021/12/23 09:25:42;;;;;;;75.90;34.78;;;-4.50;99.90;;;;;;5113119;28;20038;-74
2021/12/23 09:33:45;;;;;;;53.63;25.70;;;-4.30;99.90;;;;;;5069578;28;20576;-76
2021/12/23 09:36:11;;;;;;;64.95;28.38;;;-4.20;99.90;;;;;;5113335;28;20098;-75
2021/12/23 09:38:36;;;;;;;64.97;28.35;;;-4.00;99.90;;;;;;5096184;28;20408;-76
2021/12/23 09:41:13;;;;;;;65.75;28.00;;;-4.00;99.90;;;;;;5096138;28;20016;-75
2021/12/23 09:43:41;;;;;;;72.25;29.95;;;-3.90;99.90;;;;;;5097072;27;20153;-75
2021/12/23 09:46:09;;;;;;;153.80;56.45;;;-3.80;99.90;;;;;;5097081;27;20031;-76
2021/12/23 09:48:35;;;;;;;91.78;34.70;;;-3.80;99.90;;;;;;5096575;28;20024;-75
2021/12/23 09:51:04;;;;;;;59.20;24.25;;;-3.70;99.90;;;;;;5099026;28;20015;-75
2021/12/23 09:53:31;;;;;;;49.13;20.58;;;-3.70;99.90;;;;;;5096045;28;20027;-75
2021/12/23 09:55:59;;;;;;;41.03;19.30;;;-3.70;99.90;;;;;;5097056;28;20039;-75
2021/12/23 09:58:25;;;;;;;40.00;16.77;;;-3.70;99.90;;;;;;5098823;28;20020;-75
2021/12/23 10:00:51;;;;;;;32.95;15.90;;;-3.60;99.90;;;;;;5094158;28;20031;-75
2021/12/23 10:03:20;;;;;;;89.03;36.60;;;-3.60;99.90;;;;;;5094752;28;20245;-75
2021/12/23 10:05:46;;;;;;;72.38;30.02;;;-3.50;99.90;;;;;;5105665;28;20050;-76
2021/12/23 10:08:14;;;;;;;45.53;20.98;;;-3.40;99.90;;;;;;5094093;28;20027;-75
2021/12/23 10:26:50;;;;;;;47.65;19.40;;;-3.30;99.90;;;;;;5095326;28;20020;-75
2021/12/23 10:38:10;;;;;;;26.37;13.83;;;-2.90;98.10;;;;;;5097644;28;20120;-75
2021/12/23 10:40:39;;;;;;;28.85;14.45;;;-2.90;96.20;;;;;;5094500;28;20265;-75
2021/12/23 10:43:06;;;;;;;36.13;17.00;;;-2.90;96.00;;;;;;5098395;28;20023;-75
2021/12/23 10:45:55;;;;;;;46.72;19.27;;;-2.80;95.40;;;;;;5099439;28;20024;-75
2021/12/23 10:48:24;;;;;;;66.88;27.52;;;-2.80;94.20;;;;;;5099442;28;20020;-75
2021/12/23 10:50:56;;;;;;;62.65;25.38;;;-2.80;92.20;;;;;;5097260;28;20065;-75
2021/12/23 10:59:10;;;;;;;45.58;20.23;;;-2.60;91.60;;;;;;5096422;28;20623;-75
2021/12/23 11:02:00;;;;;;;32.75;14.82;;;-2.60;89.70;;;;;;5099359;28;20020;-75
2021/12/23 11:04:27;;;;;;;42.67;19.77;;;-2.60;88.90;;;;;;5095032;28;20063;-75
2021/12/23 11:07:23;;;;;;;47.05;20.23;;;-2.50;89.30;;;;;;5098352;28;20016;-75
2021/12/23 11:10:09;;;;;;;35.33;15.85;;;-2.50;89.00;;;;;;5111632;27;20020;-75
2021/12/23 11:37:47;;;;;;;24.40;12.75;;;-2.20;83.00;;;;;;5097854;28;20447;-75
2021/12/23 11:40:26;;;;;;;38.13;17.02;;;-2.20;82.10;;;;;;5096061;28;20063;-75
2021/12/23 11:45:33;;;;;;;25.83;14.00;;;-2.20;82.10;;;;;;5096422;28;20511;-76
2021/12/23 11:47:59;;;;;;;33.90;17.77;;;-2.20;81.50;;;;;;5097570;28;20024;-75
2021/12/23 11:50:41;;;;;;;27.13;14.27;;;-2.20;81.60;;;;;;5097449;28;20039;-76
2021/12/23 11:53:07;;;;;;;26.70;13.82;;;-2.20;81.80;;;;;;5097273;28;20026;-75
2021/12/23 11:55:33;;;;;;;61.50;22.15;;;-2.20;81.60;;;;;;5097128;28;20020;-76
2021/12/23 11:57:59;;;;;;;108.75;39.50;;;-2.20;82.20;;;;;;5092602;28;20047;-76
2021/12/23 12:03:20;;;;;;;32.53;15.70;;;-2.20;81.30;;;;;;5088264;28;20065;-75
2021/12/23 12:05:48;;;;;;;37.83;15.85;;;-2.20;81.60;;;;;;5097432;28;20455;-75
2021/12/23 12:08:15;;;;;;;36.25;17.38;;;-2.20;82.10;;;;;;5097208;28;20115;-76
2021/12/23 12:10:43;;;;;;;33.65;17.63;;;-2.20;82.50;;;;;;5101153;28;20027;-75
2021/12/23 12:13:11;;;;;;;43.67;20.52;;;-2.20;82.80;;;;;;5094860;28;20510;-76
2021/12/23 12:15:41;;;;;;;41.15;18.42;;;-2.20;83.10;;;;;;5096961;28;20028;-76
2021/12/23 12:18:21;;;;;;;29.65;16.85;;;-2.20;82.80;;;;;;5096144;28;20020;-75
2021/12/23 12:20:54;;;;;;;34.53;15.50;;;-2.20;83.00;;;;;;5094655;28;20160;-78
2021/12/23 12:23:33;;;;;;;22.75;12.85;;;-2.30;82.50;;;;;;5092994;28;20487;-78
2021/12/23 12:26:23;;;;;;;30.20;14.98;;;-2.30;83.00;;;;;;5094537;28;20085;-78
2021/12/23 12:28:50;;;;;;;24.95;14.27;;;-2.30;83.40;;;;;;5092885;28;20028;-78
2021/12/23 12:31:22;;;;;;;37.30;17.90;;;-2.30;83.10;;;;;;5095641;28;20030;-78
2021/12/23 12:34:07;;;;;;;32.08;18.25;;;-2.20;83.50;;;;;;5094480;28;20066;-78
2021/12/23 12:36:48;;;;;;;30.88;14.73;;;-2.20;83.00;;;;;;5097405;28;20031;-78
2021/12/23 12:39:23;;;;;;;49.40;22.80;;;-2.20;82.80;;;;;;5094541;28;20034;-78
2021/12/23 12:41:49;;;;;;;48.15;20.35;;;-2.20;83.40;;;;;;5097494;28;20011;-78
2021/12/23 12:44:27;;;;;;;33.40;18.65;;;-2.10;83.60;;;;;;5098451;28;20032;-78
2021/12/23 12:47:11;;;;;;;30.35;15.77;;;-2.10;83.30;;;;;;5099107;28;20016;-78
2021/12/23 12:49:40;;;;;;;30.45;16.48;;;-2.10;83.80;;;;;;5099380;28;20027;-78
2021/12/23 12:52:21;;;;;;;33.60;18.52;;;-2.10;84.00;;;;;;5099568;28;20030;-78
2021/12/23 12:54:55;;;;;;;37.85;17.98;;;-2.10;84.10;;;;;;5095206;28;20032;-78
2021/12/23 12:57:31;;;;;;;44.85;21.45;;;-2.20;83.40;;;;;;5103486;28;20028;-78
2021/12/23 12:59:57;;;;;;;45.53;23.02;;;-2.20;83.30;;;;;;5090730;28;20039;-78
2021/12/23 13:02:25;;;;;;;60.50;30.38;;;-2.10;83.30;;;;;;5090795;28;20024;-78
2021/12/23 13:05:14;;;;;;;37.40;21.23;;;-2.20;82.60;;;;;;5101246;28;20062;-78
2021/12/23 13:07:41;;;;;;;41.92;21.05;;;-2.20;82.90;;;;;;5101651;28;20039;-77
2021/12/23 13:10:15;;;;;;;56.53;25.92;;;-2.20;82.70;;;;;;5092404;28;20416;-78
2021/12/23 13:12:52;;;;;;;69.50;31.45;;;-2.20;82.80;;;;;;5090343;28;20028;-76
2021/12/23 13:15:28;;;;;;;64.10;29.23;;;-2.20;83.10;;;;;;5103996;28;20027;-76
2021/12/23 13:18:17;;;;;;;80.53;36.30;;;-2.20;83.40;;;;;;5096023;28;20016;-76
2021/12/23 13:20:53;;;;;;;82.75;35.30;;;-2.20;83.30;;;;;;5092116;28;20381;-76
2021/12/23 13:23:36;;;;;;;60.22;27.98;;;-2.20;83.90;;;;;;5103269;28;20028;-76
2021/12/23 13:26:08;;;;;;;54.70;26.00;;;-2.20;84.60;;;;;;5095233;28;20123;-76
2021/12/23 13:28:47;;;;;;;52.03;25.45;;;-2.20;85.20;;;;;;5090716;28;20016;-76
2021/12/23 13:31:28;;;;;;;54.88;27.75;;;-2.20;85.50;;;;;;5107804;28;20008;-78
2021/12/23 13:34:25;;;;;;;53.45;23.45;;;-2.20;85.50;;;;;;5093374;28;20021;-78
2021/12/23 13:37:02;;;;;;;50.65;24.05;;;-2.20;85.40;;;;;;5082214;28;20036;-77
2021/12/23 13:39:33;;;;;;;50.97;25.27;;;-2.20;85.60;;;;;;5097295;28;20465;-78
2021/12/23 13:42:07;;;;;;;67.25;32.33;;;-2.20;85.90;;;;;;5094122;28;20377;-78
2021/12/23 13:44:35;;;;;;;60.78;28.13;;;-2.20;86.20;;;;;;5099049;28;20028;-78